sensor_id;sensor_type;location;lat;lon;timestamp;P1;durP1;ratioP1;P2;durP2;ratioP2
45650;SDS011;31365;48.858;8.530;2024-02-15T00:00:05;9.93;;;8.00;;
45650;SDS011;31365;48.858;8.530;2024-02-15T00:02:35;12.33;;;8.57;;
45650;SDS011;31365;48.858;8.530;2024-02-15T00:05:24;8.33;;;6.00;;
45650;SDS011;31365;48.858;8.530;2024-02-15T00:07:53;10.07;;;8.00;;
45650;SDS011;31365;48.858;8.530;2024-02-15T00:10:23;8.10;;;6.70;;
45650;SDS011;31365;48.858;8.530;2024-02-15T00:12:51;8.20;;;5.40;;
45650;SDS011;31365;48.858;8.530;2024-02-15T00:15:20;5.83;;;5.40;;
45650;SDS011;31365;48.858;8.530;2024-02-15T00:17:49;9.03;;;8.13;;
45650;SDS011;31365;48.858;8.530;2024-02-15T00:20:19;9.27;;;5.67;;
45650;SDS011;31365;48.858;8.530;2024-02-15T00:22:48;5.57;;;5.07;;
45650;SDS011;31365;48.858;8.530;2024-02-15T00:25:16;7.40;;;5.80;;
45650;SDS011;31365;48.858;8.530;2024-02-15T00:27:48;7.07;;;5.33;;
45650;SDS011;31365;48.858;8.530;2024-02-15T00:30:17;5.50;;;5.10;;
45650;SDS011;31365;48.858;8.530;2024-02-15T00:32:46;5.47;;;5.07;;
45650;SDS011;31365;48.858;8.530;2024-02-15T00:35:15;5.67;;;5.27;;
45650;SDS011;31365;48.858;8.530;2024-02-15T00:37:45;5.33;;;4.93;;
45650;SDS011;31365;48.858;8.530;2024-02-15T00:40:13;5.73;;;5.33;;
45650;SDS011;31365;48.858;8.530;2024-02-15T00:42:43;5.60;;;5.20;;
45650;SDS011;31365;48.858;8.530;2024-02-15T00:45:13;5.80;;;5.40;;
45650;SDS011;31365;48.858;8.530;2024-02-15T00:47:42;5.63;;;5.13;;
45650;SDS011;31365;48.858;8.530;2024-02-15T00:50:10;6.23;;;5.73;;
45650;SDS011;31365;48.858;8.530;2024-02-15T00:52:39;5.73;;;5.33;;
45650;SDS011;31365;48.858;8.530;2024-02-15T00:55:08;6.63;;;5.90;;
45650;SDS011;31365;48.858;8.530;2024-02-15T00:57:36;6.00;;;5.47;;
45650;SDS011;31365;48.858;8.530;2024-02-15T01:00:05;5.90;;;5.50;;
45650;SDS011;31365;48.858;8.530;2024-02-15T01:02:38;6.53;;;5.70;;
45650;SDS011;31365;48.858;8.530;2024-02-15T01:05:07;6.13;;;5.70;;
45650;SDS011;31365;48.858;8.530;2024-02-15T01:07:36;6.00;;;5.60;;
45650;SDS011;31365;48.858;8.530;2024-02-15T01:10:05;5.80;;;5.40;;
45650;SDS011;31365;48.858;8.530;2024-02-15T01:12:35;6.00;;;5.40;;
45650;SDS011;31365;48.858;8.530;2024-02-15T01:15:04;5.97;;;5.60;;
45650;SDS011;31365;48.858;8.530;2024-02-15T01:17:34;6.57;;;5.93;;
45650;SDS011;31365;48.858;8.530;2024-02-15T01:20:05;6.40;;;5.80;;
45650;SDS011;31365;48.858;8.530;2024-02-15T01:22:34;6.83;;;6.13;;
45650;SDS011;31365;48.858;8.530;2024-02-15T01:25:02;6.20;;;5.73;;
45650;SDS011;31365;48.858;8.530;2024-02-15T01:27:32;5.97;;;5.57;;
45650;SDS011;31365;48.858;8.530;2024-02-15T01:30:01;6.37;;;5.97;;
45650;SDS011;31365;48.858;8.530;2024-02-15T01:32:31;6.67;;;6.27;;
45650;SDS011;31365;48.858;8.530;2024-02-15T01:34:59;6.67;;;6.00;;
45650;SDS011;31365;48.858;8.530;2024-02-15T01:37:30;6.87;;;6.30;;
45650;SDS011;31365;48.858;8.530;2024-02-15T01:39:58;6.30;;;5.90;;
45650;SDS011;31365;48.858;8.530;2024-02-15T01:42:27;6.70;;;6.20;;
45650;SDS011;31365;48.858;8.530;2024-02-15T01:44:56;6.40;;;5.90;;
45650;SDS011;31365;48.858;8.530;2024-02-15T01:47:24;6.33;;;5.83;;
45650;SDS011;31365;48.858;8.530;2024-02-15T01:49:53;6.33;;;5.80;;
45650;SDS011;31365;48.858;8.530;2024-02-15T01:52:23;5.80;;;5.50;;
45650;SDS011;31365;48.858;8.530;2024-02-15T01:54:54;6.40;;;5.90;;
45650;SDS011;31365;48.858;8.530;2024-02-15T01:57:23;6.77;;;6.17;;
45650;SDS011;31365;48.858;8.530;2024-02-15T01:59:52;6.10;;;5.70;;
45650;SDS011;31365;48.858;8.530;2024-02-15T02:02:22;7.20;;;5.60;;
45650;SDS011;31365;48.858;8.530;2024-02-15T02:04:56;6.00;;;5.60;;
45650;SDS011;31365;48.858;8.530;2024-02-15T02:07:26;6.20;;;5.80;;
45650;SDS011;31365;48.858;8.530;2024-02-15T02:09:56;6.53;;;5.93;;
45650;SDS011;31365;48.858;8.530;2024-02-15T02:12:25;6.03;;;5.53;;
45650;SDS011;31365;48.858;8.530;2024-02-15T02:14:55;6.37;;;5.80;;
45650;SDS011;31365;48.858;8.530;2024-02-15T02:17:24;5.70;;;5.37;;
45650;SDS011;31365;48.858;8.530;2024-02-15T02:19:52;5.80;;;5.40;;
45650;SDS011;31365;48.858;8.530;2024-02-15T02:22:21;6.37;;;5.97;;
45650;SDS011;31365;48.858;8.530;2024-02-15T02:24:57;6.40;;;5.80;;
45650;SDS011;31365;48.858;8.530;2024-02-15T02:27:31;6.60;;;6.03;;
45650;SDS011;31365;48.858;8.530;2024-02-15T02:30:00;5.60;;;5.20;;
45650;SDS011;31365;48.858;8.530;2024-02-15T02:32:33;6.10;;;5.60;;
45650;SDS011;31365;48.858;8.530;2024-02-15T02:35:03;8.47;;;6.23;;
45650;SDS011;31365;48.858;8.530;2024-02-15T02:37:34;8.00;;;5.90;;
45650;SDS011;31365;48.858;8.530;2024-02-15T02:40:06;6.20;;;5.70;;
45650;SDS011;31365;48.858;8.530;2024-02-15T02:42:36;5.90;;;5.40;;
45650;SDS011;31365;48.858;8.530;2024-02-15T02:45:15;6.13;;;5.53;;
45650;SDS011;31365;48.858;8.530;2024-02-15T02:47:44;6.27;;;5.53;;
45650;SDS011;31365;48.858;8.530;2024-02-15T02:50:15;6.00;;;5.60;;
45650;SDS011;31365;48.858;8.530;2024-02-15T02:52:44;5.93;;;5.50;;
45650;SDS011;31365;48.858;8.530;2024-02-15T02:55:16;6.00;;;5.50;;
45650;SDS011;31365;48.858;8.530;2024-02-15T02:57:45;6.53;;;5.43;;
45650;SDS011;31365;48.858;8.530;2024-02-15T03:00:15;6.27;;;5.60;;
45650;SDS011;31365;48.858;8.530;2024-02-15T03:02:45;7.33;;;6.07;;
45650;SDS011;31365;48.858;8.530;2024-02-15T03:05:14;6.27;;;5.70;;
45650;SDS011;31365;48.858;8.530;2024-02-15T03:07:44;6.30;;;5.90;;
45650;SDS011;31365;48.858;8.530;2024-02-15T03:10:12;6.13;;;5.63;;
45650;SDS011;31365;48.858;8.530;2024-02-15T03:12:43;6.63;;;6.00;;
45650;SDS011;31365;48.858;8.530;2024-02-15T03:15:15;6.30;;;5.80;;
45650;SDS011;31365;48.858;8.530;2024-02-15T03:17:46;7.57;;;6.67;;
45650;SDS011;31365;48.858;8.530;2024-02-15T03:20:16;7.13;;;6.40;;
45650;SDS011;31365;48.858;8.530;2024-02-15T03:22:52;6.50;;;6.00;;
45650;SDS011;31365;48.858;8.530;2024-02-15T03:25:22;7.00;;;6.10;;
45650;SDS011;31365;48.858;8.530;2024-02-15T03:27:53;6.23;;;5.83;;
45650;SDS011;31365;48.858;8.530;2024-02-15T03:30:24;8.30;;;5.67;;
45650;SDS011;31365;48.858;8.530;2024-02-15T03:32:54;7.87;;;5.93;;
45650;SDS011;31365;48.858;8.530;2024-02-15T03:35:23;6.17;;;5.67;;
45650;SDS011;31365;48.858;8.530;2024-02-15T03:37:55;6.87;;;5.80;;
45650;SDS011;31365;48.858;8.530;2024-02-15T03:40:24;6.40;;;5.90;;
45650;SDS011;31365;48.858;8.530;2024-02-15T03:42:55;7.27;;;5.87;;
45650;SDS011;31365;48.858;8.530;2024-02-15T03:45:24;5.60;;;5.30;;
45650;SDS011;31365;48.858;8.530;2024-02-15T03:47:54;5.90;;;5.50;;
45650;SDS011;31365;48.858;8.530;2024-02-15T03:50:23;6.00;;;5.60;;
45650;SDS011;31365;48.858;8.530;2024-02-15T03:52:52;6.50;;;5.90;;
45650;SDS011;31365;48.858;8.530;2024-02-15T03:55:21;5.63;;;5.33;;
45650;SDS011;31365;48.858;8.530;2024-02-15T03:57:52;5.77;;;5.37;;
45650;SDS011;31365;48.858;8.530;2024-02-15T04:00:23;5.67;;;5.20;;
45650;SDS011;31365;48.858;8.530;2024-02-15T04:02:52;6.33;;;5.83;;
45650;SDS011;31365;48.858;8.530;2024-02-15T04:05:22;5.40;;;5.17;;
45650;SDS011;31365;48.858;8.530;2024-02-15T04:07:50;6.43;;;5.60;;
45650;SDS011;31365;48.858;8.530;2024-02-15T04:10:20;5.53;;;5.27;;
45650;SDS011;31365;48.858;8.530;2024-02-15T04:12:49;5.80;;;5.50;;
45650;SDS011;31365;48.858;8.530;2024-02-15T04:15:18;5.90;;;5.40;;
45650;SDS011;31365;48.858;8.530;2024-02-15T04:17:48;5.67;;;5.37;;
45650;SDS011;31365;48.858;8.530;2024-02-15T04:20:22;6.00;;;5.57;;
45650;SDS011;31365;48.858;8.530;2024-02-15T04:22:51;5.70;;;5.40;;
45650;SDS011;31365;48.858;8.530;2024-02-15T04:25:21;6.00;;;5.60;;
45650;SDS011;31365;48.858;8.530;2024-02-15T04:27:54;6.20;;;5.80;;
45650;SDS011;31365;48.858;8.530;2024-02-15T04:30:24;8.13;;;6.83;;
45650;SDS011;31365;48.858;8.530;2024-02-15T04:32:54;7.43;;;6.67;;
45650;SDS011;31365;48.858;8.530;2024-02-15T04:35:23;8.17;;;7.37;;
45650;SDS011;31365;48.858;8.530;2024-02-15T04:37:54;7.30;;;6.67;;
45650;SDS011;31365;48.858;8.530;2024-02-15T04:40:22;7.37;;;6.70;;
45650;SDS011;31365;48.858;8.530;2024-02-15T04:42:51;7.20;;;6.70;;
45650;SDS011;31365;48.858;8.530;2024-02-15T04:45:20;7.70;;;7.10;;
45650;SDS011;31365;48.858;8.530;2024-02-15T04:47:49;8.13;;;7.47;;
45650;SDS011;31365;48.858;8.530;2024-02-15T04:50:22;8.70;;;8.00;;
45650;SDS011;31365;48.858;8.530;2024-02-15T04:52:52;9.60;;;8.70;;
45650;SDS011;31365;48.858;8.530;2024-02-15T04:55:21;9.03;;;8.20;;
45650;SDS011;31365;48.858;8.530;2024-02-15T04:57:49;7.90;;;7.30;;
45650;SDS011;31365;48.858;8.530;2024-02-15T05:00:22;6.80;;;6.20;;
45650;SDS011;31365;48.858;8.530;2024-02-15T05:02:52;7.30;;;5.87;;
45650;SDS011;31365;48.858;8.530;2024-02-15T05:05:22;6.23;;;5.93;;
45650;SDS011;31365;48.858;8.530;2024-02-15T05:07:53;7.17;;;6.50;;
45650;SDS011;31365;48.858;8.530;2024-02-15T05:10:21;6.97;;;6.33;;
45650;SDS011;31365;48.858;8.530;2024-02-15T05:12:50;6.53;;;5.93;;
45650;SDS011;31365;48.858;8.530;2024-02-15T05:15:20;6.40;;;5.90;;
45650;SDS011;31365;48.858;8.530;2024-02-15T05:17:51;7.40;;;6.70;;
45650;SDS011;31365;48.858;8.530;2024-02-15T05:20:20;7.80;;;7.10;;
45650;SDS011;31365;48.858;8.530;2024-02-15T05:22:52;7.23;;;6.63;;
45650;SDS011;31365;48.858;8.530;2024-02-15T05:25:20;9.37;;;8.47;;
45650;SDS011;31365;48.858;8.530;2024-02-15T05:27:52;7.63;;;6.93;;
45650;SDS011;31365;48.858;8.530;2024-02-15T05:30:23;9.37;;;6.50;;
45650;SDS011;31365;48.858;8.530;2024-02-15T05:32:52;7.90;;;7.30;;
45650;SDS011;31365;48.858;8.530;2024-02-15T05:35:23;10.20;;;9.20;;
45650;SDS011;31365;48.858;8.530;2024-02-15T05:37:53;8.77;;;8.02;;
45650;SDS011;31365;48.858;8.530;2024-02-15T05:40:22;7.90;;;7.30;;
45650;SDS011;31365;48.858;8.530;2024-02-15T05:42:54;8.03;;;7.43;;
45650;SDS011;31365;48.858;8.530;2024-02-15T05:45:28;8.63;;;7.90;;
45650;SDS011;31365;48.858;8.530;2024-02-15T05:48:04;8.23;;;7.57;;
45650;SDS011;31365;48.858;8.530;2024-02-15T05:50:41;7.77;;;7.23;;
45650;SDS011;31365;48.858;8.530;2024-02-15T05:53:09;6.40;;;6.00;;
45650;SDS011;31365;48.858;8.530;2024-02-15T05:55:37;7.63;;;6.90;;
45650;SDS011;31365;48.858;8.530;2024-02-15T05:58:10;9.20;;;7.67;;
45650;SDS011;31365;48.858;8.530;2024-02-15T06:00:40;7.23;;;6.80;;
45650;SDS011;31365;48.858;8.530;2024-02-15T06:03:10;12.63;;;7.03;;
45650;SDS011;31365;48.858;8.530;2024-02-15T06:05:41;7.00;;;6.60;;
45650;SDS011;31365;48.858;8.530;2024-02-15T06:08:10;6.27;;;5.97;;
45650;SDS011;31365;48.858;8.530;2024-02-15T06:10:39;6.77;;;6.20;;
45650;SDS011;31365;48.858;8.530;2024-02-15T06:13:08;6.87;;;6.37;;
45650;SDS011;31365;48.858;8.530;2024-02-15T06:15:37;6.07;;;5.57;;
45650;SDS011;31365;48.858;8.530;2024-02-15T06:18:05;5.37;;;5.13;;
45650;SDS011;31365;48.858;8.530;2024-02-15T06:20:36;5.90;;;5.40;;
45650;SDS011;31365;48.858;8.530;2024-02-15T06:23:07;5.93;;;5.57;;
45650;SDS011;31365;48.858;8.530;2024-02-15T06:25:36;6.10;;;5.63;;
45650;SDS011;31365;48.858;8.530;2024-02-15T06:28:05;5.13;;;4.83;;
45650;SDS011;31365;48.858;8.530;2024-02-15T06:30:46;6.20;;;5.70;;
45650;SDS011;31365;48.858;8.530;2024-02-15T06:33:32;5.93;;;5.53;;
45650;SDS011;31365;48.858;8.530;2024-02-15T06:36:18;6.50;;;5.90;;
45650;SDS011;31365;48.858;8.530;2024-02-15T06:39:05;6.30;;;5.83;;
45650;SDS011;31365;48.858;8.530;2024-02-15T06:41:52;6.63;;;6.20;;
45650;SDS011;31365;48.858;8.530;2024-02-15T06:44:20;5.87;;;5.50;;
45650;SDS011;31365;48.858;8.530;2024-02-15T06:46:50;6.63;;;5.93;;
45650;SDS011;31365;48.858;8.530;2024-02-15T06:49:19;7.00;;;6.27;;
45650;SDS011;31365;48.858;8.530;2024-02-15T06:51:48;7.47;;;6.13;;
45650;SDS011;31365;48.858;8.530;2024-02-15T06:54:19;6.90;;;6.23;;
45650;SDS011;31365;48.858;8.530;2024-02-15T06:56:48;6.33;;;5.93;;
45650;SDS011;31365;48.858;8.530;2024-02-15T06:59:18;6.20;;;5.80;;
45650;SDS011;31365;48.858;8.530;2024-02-15T07:01:48;7.40;;;6.73;;
45650;SDS011;31365;48.858;8.530;2024-02-15T07:04:19;7.53;;;6.60;;
45650;SDS011;31365;48.858;8.530;2024-02-15T07:06:48;6.93;;;6.53;;
45650;SDS011;31365;48.858;8.530;2024-02-15T07:09:19;6.20;;;5.80;;
45650;SDS011;31365;48.858;8.530;2024-02-15T07:11:51;6.40;;;6.00;;
45650;SDS011;31365;48.858;8.530;2024-02-15T07:14:20;6.80;;;6.10;;
45650;SDS011;31365;48.858;8.530;2024-02-15T07:16:48;6.60;;;6.20;;
45650;SDS011;31365;48.858;8.530;2024-02-15T07:19:17;7.27;;;6.70;;
45650;SDS011;31365;48.858;8.530;2024-02-15T07:21:47;7.23;;;6.67;;
45650;SDS011;31365;48.858;8.530;2024-02-15T07:24:16;7.00;;;6.53;;
45650;SDS011;31365;48.858;8.530;2024-02-15T07:26:47;6.50;;;6.10;;
45650;SDS011;31365;48.858;8.530;2024-02-15T07:29:19;7.17;;;6.77;;
45650;SDS011;31365;48.858;8.530;2024-02-15T07:31:49;6.93;;;6.50;;
45650;SDS011;31365;48.858;8.530;2024-02-15T07:34:18;7.50;;;6.80;;
45650;SDS011;31365;48.858;8.530;2024-02-15T07:36:47;7.33;;;6.60;;
45650;SDS011;31365;48.858;8.530;2024-02-15T07:39:15;7.20;;;6.53;;
45650;SDS011;31365;48.858;8.530;2024-02-15T07:41:52;6.77;;;6.17;;
45650;SDS011;31365;48.858;8.530;2024-02-15T07:44:21;8.37;;;6.70;;
45650;SDS011;31365;48.858;8.530;2024-02-15T07:46:49;7.30;;;6.90;;
45650;SDS011;31365;48.858;8.530;2024-02-15T07:49:18;7.43;;;6.80;;
45650;SDS011;31365;48.858;8.530;2024-02-15T07:51:47;7.20;;;6.60;;
45650;SDS011;31365;48.858;8.530;2024-02-15T07:54:20;7.00;;;6.60;;
45650;SDS011;31365;48.858;8.530;2024-02-15T07:56:49;7.10;;;6.67;;
45650;SDS011;31365;48.858;8.530;2024-02-15T07:59:20;7.40;;;6.83;;
45650;SDS011;31365;48.858;8.530;2024-02-15T08:01:49;6.53;;;6.03;;
45650;SDS011;31365;48.858;8.530;2024-02-15T08:04:18;7.93;;;6.47;;
45650;SDS011;31365;48.858;8.530;2024-02-15T08:06:47;6.90;;;6.40;;
45650;SDS011;31365;48.858;8.530;2024-02-15T08:09:17;6.73;;;6.20;;
45650;SDS011;31365;48.858;8.530;2024-02-15T08:11:48;6.30;;;6.00;;
45650;SDS011;31365;48.858;8.530;2024-02-15T08:14:18;6.70;;;6.10;;
45650;SDS011;31365;48.858;8.530;2024-02-15T08:16:49;6.93;;;6.37;;
45650;SDS011;31365;48.858;8.530;2024-02-15T08:19:17;6.20;;;5.80;;
45650;SDS011;31365;48.858;8.530;2024-02-15T08:21:46;10.90;;;6.70;;
45650;SDS011;31365;48.858;8.530;2024-02-15T08:24:17;6.57;;;5.97;;
45650;SDS011;31365;48.858;8.530;2024-02-15T08:26:46;6.00;;;5.60;;
45650;SDS011;31365;48.858;8.530;2024-02-15T08:29:15;6.07;;;5.77;;
45650;SDS011;31365;48.858;8.530;2024-02-15T08:31:43;5.80;;;5.40;;
45650;SDS011;31365;48.858;8.530;2024-02-15T08:34:13;9.70;;;6.17;;
45650;SDS011;31365;48.858;8.530;2024-02-15T08:36:41;7.20;;;6.50;;
45650;SDS011;31365;48.858;8.530;2024-02-15T08:39:09;6.07;;;5.67;;
45650;SDS011;31365;48.858;8.530;2024-02-15T08:41:39;6.37;;;6.00;;
45650;SDS011;31365;48.858;8.530;2024-02-15T08:44:07;7.07;;;6.50;;
45650;SDS011;31365;48.858;8.530;2024-02-15T08:46:38;7.50;;;7.00;;
45650;SDS011;31365;48.858;8.530;2024-02-15T08:49:06;9.73;;;8.17;;
45650;SDS011;31365;48.858;8.530;2024-02-15T08:51:36;8.70;;;7.90;;
45650;SDS011;31365;48.858;8.530;2024-02-15T08:54:05;8.70;;;7.90;;
45650;SDS011;31365;48.858;8.530;2024-02-15T08:56:35;8.47;;;7.33;;
45650;SDS011;31365;48.858;8.530;2024-02-15T08:59:04;8.00;;;7.23;;
45650;SDS011;31365;48.858;8.530;2024-02-15T09:01:32;14.57;;;8.17;;
45650;SDS011;31365;48.858;8.530;2024-02-15T09:04:00;7.67;;;5.90;;
45650;SDS011;31365;48.858;8.530;2024-02-15T09:06:29;9.97;;;5.47;;
45650;SDS011;31365;48.858;8.530;2024-02-15T09:09:00;14.70;;;4.80;;
45650;SDS011;31365;48.858;8.530;2024-02-15T09:11:29;9.00;;;4.70;;
45650;SDS011;31365;48.858;8.530;2024-02-15T09:13:57;5.50;;;4.37;;
45650;SDS011;31365;48.858;8.530;2024-02-15T09:16:26;6.27;;;4.87;;
45650;SDS011;31365;48.858;8.530;2024-02-15T09:18:54;5.00;;;4.07;;
45650;SDS011;31365;48.858;8.530;2024-02-15T09:21:23;7.63;;;3.70;;
45650;SDS011;31365;48.858;8.530;2024-02-15T09:23:53;3.40;;;3.07;;
45650;SDS011;31365;48.858;8.530;2024-02-15T09:26:22;4.20;;;3.00;;
45650;SDS011;31365;48.858;8.530;2024-02-15T09:28:51;9.47;;;3.50;;
45650;SDS011;31365;48.858;8.530;2024-02-15T09:31:19;10.33;;;3.50;;
45650;SDS011;31365;48.858;8.530;2024-02-15T09:33:48;3.80;;;2.87;;
45650;SDS011;31365;48.858;8.530;2024-02-15T09:36:16;4.13;;;2.90;;
45650;SDS011;31365;48.858;8.530;2024-02-15T09:38:45;4.33;;;2.50;;
45650;SDS011;31365;48.858;8.530;2024-02-15T09:41:14;3.17;;;2.87;;
45650;SDS011;31365;48.858;8.530;2024-02-15T09:43:44;3.27;;;2.97;;
45650;SDS011;31365;48.858;8.530;2024-02-15T09:46:13;2.57;;;2.47;;
45650;SDS011;31365;48.858;8.530;2024-02-15T09:48:43;7.33;;;6.53;;
45650;SDS011;31365;48.858;8.530;2024-02-15T09:51:18;4.07;;;2.43;;
45650;SDS011;31365;48.858;8.530;2024-02-15T09:53:48;4.50;;;2.70;;
45650;SDS011;31365;48.858;8.530;2024-02-15T09:56:16;4.50;;;2.60;;
45650;SDS011;31365;48.858;8.530;2024-02-15T09:58:47;3.17;;;2.97;;
45650;SDS011;31365;48.858;8.530;2024-02-15T10:01:17;3.07;;;2.77;;
45650;SDS011;31365;48.858;8.530;2024-02-15T10:03:50;2.70;;;2.50;;
45650;SDS011;31365;48.858;8.530;2024-02-15T10:06:20;3.23;;;2.93;;
45650;SDS011;31365;48.858;8.530;2024-02-15T10:08:49;4.07;;;2.50;;
45650;SDS011;31365;48.858;8.530;2024-02-15T10:11:18;2.60;;;2.40;;
45650;SDS011;31365;48.858;8.530;2024-02-15T10:13:48;6.63;;;3.00;;
45650;SDS011;31365;48.858;8.530;2024-02-15T10:16:17;2.60;;;2.40;;
45650;SDS011;31365;48.858;8.530;2024-02-15T10:18:51;2.77;;;2.50;;
45650;SDS011;31365;48.858;8.530;2024-02-15T10:21:26;2.23;;;2.13;;
45650;SDS011;31365;48.858;8.530;2024-02-15T10:24:06;5.78;;;2.53;;
45650;SDS011;31365;48.858;8.530;2024-02-15T10:26:36;2.70;;;2.47;;
45650;SDS011;31365;48.858;8.530;2024-02-15T10:29:06;3.37;;;2.53;;
45650;SDS011;31365;48.858;8.530;2024-02-15T10:31:38;2.30;;;2.20;;
45650;SDS011;31365;48.858;8.530;2024-02-15T10:34:08;2.97;;;2.57;;
45650;SDS011;31365;48.858;8.530;2024-02-15T10:36:42;3.27;;;2.33;;
45650;SDS011;31365;48.858;8.530;2024-02-15T10:39:10;2.85;;;2.58;;
45650;SDS011;31365;48.858;8.530;2024-02-15T10:41:47;3.97;;;2.50;;
45650;SDS011;31365;48.858;8.530;2024-02-15T10:44:20;3.38;;;2.40;;
45650;SDS011;31365;48.858;8.530;2024-02-15T10:46:51;4.35;;;2.80;;
45650;SDS011;31365;48.858;8.530;2024-02-15T10:49:21;3.03;;;2.60;;
45650;SDS011;31365;48.858;8.530;2024-02-15T10:51:52;3.83;;;2.60;;
45650;SDS011;31365;48.858;8.530;2024-02-15T10:54:40;3.78;;;2.92;;
45650;SDS011;31365;48.858;8.530;2024-02-15T10:57:14;3.47;;;2.60;;
45650;SDS011;31365;48.858;8.530;2024-02-15T10:59:54;22.58;;;4.82;;
45650;SDS011;31365;48.858;8.530;2024-02-15T11:02:26;7.78;;;2.70;;
45650;SDS011;31365;48.858;8.530;2024-02-15T11:05:02;16.20;;;3.42;;
45650;SDS011;31365;48.858;8.530;2024-02-15T11:07:36;2.58;;;2.38;;
45650;SDS011;31365;48.858;8.530;2024-02-15T11:10:06;3.63;;;2.53;;
45650;SDS011;31365;48.858;8.530;2024-02-15T11:12:37;10.90;;;3.67;;
45650;SDS011;31365;48.858;8.530;2024-02-15T11:21:15;2.65;;;2.30;;
45650;SDS011;31365;48.858;8.530;2024-02-15T11:23:45;5.55;;;2.72;;
45650;SDS011;31365;48.858;8.530;2024-02-15T11:35:07;4.13;;;3.00;;
45650;SDS011;31365;48.858;8.530;2024-02-15T11:37:49;3.20;;;2.88;;
45650;SDS011;31365;48.858;8.530;2024-02-15T11:40:26;7.10;;;2.90;;
45650;SDS011;31365;48.858;8.530;2024-02-15T11:42:56;3.00;;;2.50;;
45650;SDS011;31365;48.858;8.530;2024-02-15T11:45:28;18.63;;;3.83;;
45650;SDS011;31365;48.858;8.530;2024-02-15T11:48:02;5.78;;;2.80;;
45650;SDS011;31365;48.858;8.530;2024-02-15T11:50:38;2.20;;;2.00;;
45650;SDS011;31365;48.858;8.530;2024-02-15T11:53:09;16.67;;;4.07;;
45650;SDS011;31365;48.858;8.530;2024-02-15T11:55:38;7.72;;;2.70;;
45650;SDS011;31365;48.858;8.530;2024-02-15T11:58:09;5.63;;;2.70;;
45650;SDS011;31365;48.858;8.530;2024-02-15T12:00:49;5.22;;;2.45;;
45650;SDS011;31365;48.858;8.530;2024-02-15T12:03:36;4.72;;;2.45;;
45650;SDS011;31365;48.858;8.530;2024-02-15T12:06:32;2.88;;;2.50;;
45650;SDS011;31365;48.858;8.530;2024-02-15T12:09:20;5.43;;;2.97;;
45650;SDS011;31365;48.858;8.530;2024-02-15T12:12:06;4.78;;;2.70;;
45650;SDS011;31365;48.858;8.530;2024-02-15T12:15:06;9.00;;;3.90;;
45650;SDS011;31365;48.858;8.530;2024-02-15T12:17:52;2.78;;;2.58;;
45650;SDS011;31365;48.858;8.530;2024-02-15T12:20:48;2.55;;;2.38;;
45650;SDS011;31365;48.858;8.530;2024-02-15T12:23:17;9.98;;;3.55;;
45650;SDS011;31365;48.858;8.530;2024-02-15T12:25:50;9.10;;;2.90;;
45650;SDS011;31365;48.858;8.530;2024-02-15T12:28:18;6.28;;;2.63;;
45650;SDS011;31365;48.858;8.530;2024-02-15T12:30:47;7.07;;;3.20;;
45650;SDS011;31365;48.858;8.530;2024-02-15T12:33:23;13.07;;;3.55;;
45650;SDS011;31365;48.858;8.530;2024-02-15T12:36:04;4.72;;;3.20;;
45650;SDS011;31365;48.858;8.530;2024-02-15T12:38:35;4.05;;;2.53;;
45650;SDS011;31365;48.858;8.530;2024-02-15T12:41:16;7.22;;;3.95;;
45650;SDS011;31365;48.858;8.530;2024-02-15T12:43:51;4.80;;;3.08;;
45650;SDS011;31365;48.858;8.530;2024-02-15T12:46:21;6.05;;;3.40;;
45650;SDS011;31365;48.858;8.530;2024-02-15T12:48:49;14.38;;;4.00;;
45650;SDS011;31365;48.858;8.530;2024-02-15T12:51:21;12.85;;;3.63;;
45650;SDS011;31365;48.858;8.530;2024-02-15T12:53:49;3.45;;;3.15;;
45650;SDS011;31365;48.858;8.530;2024-02-15T12:56:21;3.08;;;2.80;;
45650;SDS011;31365;48.858;8.530;2024-02-15T12:58:50;4.65;;;2.80;;
45650;SDS011;31365;48.858;8.530;2024-02-15T13:01:18;3.28;;;2.95;;
45650;SDS011;31365;48.858;8.530;2024-02-15T13:03:47;3.20;;;2.90;;
45650;SDS011;31365;48.858;8.530;2024-02-15T13:06:16;3.72;;;2.65;;
45650;SDS011;31365;48.858;8.530;2024-02-15T13:08:46;3.20;;;2.90;;
45650;SDS011;31365;48.858;8.530;2024-02-15T13:11:15;4.55;;;2.97;;
45650;SDS011;31365;48.858;8.530;2024-02-15T13:13:44;4.18;;;2.83;;
45650;SDS011;31365;48.858;8.530;2024-02-15T13:16:13;5.38;;;2.92;;
45650;SDS011;31365;48.858;8.530;2024-02-15T13:18:41;6.47;;;3.03;;
45650;SDS011;31365;48.858;8.530;2024-02-15T13:21:10;2.80;;;2.60;;
45650;SDS011;31365;48.858;8.530;2024-02-15T13:23:39;2.92;;;2.67;;
45650;SDS011;31365;48.858;8.530;2024-02-15T13:26:09;5.70;;;3.45;;
45650;SDS011;31365;48.858;8.530;2024-02-15T13:29:01;2.78;;;2.58;;
45650;SDS011;31365;48.858;8.530;2024-02-15T13:31:29;3.00;;;2.65;;
45650;SDS011;31365;48.858;8.530;2024-02-15T13:33:57;3.03;;;2.50;;
45650;SDS011;31365;48.858;8.530;2024-02-15T13:36:26;4.00;;;3.15;;
45650;SDS011;31365;48.858;8.530;2024-02-15T13:38:55;2.80;;;2.60;;
45650;SDS011;31365;48.858;8.530;2024-02-15T13:41:25;4.85;;;2.95;;
45650;SDS011;31365;48.858;8.530;2024-02-15T13:43:53;18.77;;;4.18;;
45650;SDS011;31365;48.858;8.530;2024-02-15T13:46:22;2.88;;;2.63;;
45650;SDS011;31365;48.858;8.530;2024-02-15T13:48:51;8.73;;;3.08;;
45650;SDS011;31365;48.858;8.530;2024-02-15T13:51:20;6.43;;;2.50;;
45650;SDS011;31365;48.858;8.530;2024-02-15T13:53:48;13.23;;;3.35;;
45650;SDS011;31365;48.858;8.530;2024-02-15T13:56:16;130.35;;;16.58;;
45650;SDS011;31365;48.858;8.530;2024-02-15T13:58:46;13.57;;;4.05;;
45650;SDS011;31365;48.858;8.530;2024-02-15T14:01:15;14.18;;;3.28;;
45650;SDS011;31365;48.858;8.530;2024-02-15T14:03:45;46.90;;;7.53;;
45650;SDS011;31365;48.858;8.530;2024-02-15T14:06:15;16.10;;;3.15;;
45650;SDS011;31365;48.858;8.530;2024-02-15T14:08:45;14.80;;;4.13;;
45650;SDS011;31365;48.858;8.530;2024-02-15T14:11:14;16.13;;;3.85;;
45650;SDS011;31365;48.858;8.530;2024-02-15T14:13:46;5.63;;;2.75;;
45650;SDS011;31365;48.858;8.530;2024-02-15T14:16:15;3.60;;;2.60;;
45650;SDS011;31365;48.858;8.530;2024-02-15T14:18:43;3.33;;;2.65;;
45650;SDS011;31365;48.858;8.530;2024-02-15T14:21:11;27.48;;;5.75;;
45650;SDS011;31365;48.858;8.530;2024-02-15T14:23:43;4.65;;;2.70;;
45650;SDS011;31365;48.858;8.530;2024-02-15T14:26:11;8.85;;;3.58;;
45650;SDS011;31365;48.858;8.530;2024-02-15T14:28:41;10.95;;;3.63;;
45650;SDS011;31365;48.858;8.530;2024-02-15T14:31:11;9.65;;;3.40;;
45650;SDS011;31365;48.858;8.530;2024-02-15T14:33:57;21.00;;;5.28;;
45650;SDS011;31365;48.858;8.530;2024-02-15T14:36:27;10.27;;;3.40;;
45650;SDS011;31365;48.858;8.530;2024-02-15T14:38:55;11.15;;;3.53;;
45650;SDS011;31365;48.858;8.530;2024-02-15T14:41:24;6.10;;;3.30;;
45650;SDS011;31365;48.858;8.530;2024-02-15T14:43:59;13.50;;;3.60;;
45650;SDS011;31365;48.858;8.530;2024-02-15T14:46:29;9.90;;;3.42;;
45650;SDS011;31365;48.858;8.530;2024-02-15T14:49:01;31.88;;;6.20;;
45650;SDS011;31365;48.858;8.530;2024-02-15T14:51:31;7.53;;;3.22;;
45650;SDS011;31365;48.858;8.530;2024-02-15T14:54:02;9.15;;;3.10;;
45650;SDS011;31365;48.858;8.530;2024-02-15T14:56:32;13.30;;;3.78;;
45650;SDS011;31365;48.858;8.530;2024-02-15T14:59:04;4.32;;;3.13;;
45650;SDS011;31365;48.858;8.530;2024-02-15T15:01:35;19.70;;;4.00;;
45650;SDS011;31365;48.858;8.530;2024-02-15T15:04:03;13.52;;;3.28;;
45650;SDS011;31365;48.858;8.530;2024-02-15T15:06:33;24.23;;;4.40;;
45650;SDS011;31365;48.858;8.530;2024-02-15T15:09:19;18.75;;;5.40;;
45650;SDS011;31365;48.858;8.530;2024-02-15T15:12:05;5.88;;;3.10;;
45650;SDS011;31365;48.858;8.530;2024-02-15T15:14:51;11.65;;;3.90;;
45650;SDS011;31365;48.858;8.530;2024-02-15T15:17:23;13.15;;;3.70;;
45650;SDS011;31365;48.858;8.530;2024-02-15T15:19:53;9.40;;;3.28;;
45650;SDS011;31365;48.858;8.530;2024-02-15T15:22:22;14.30;;;3.70;;